Time;durP1;ratioP1;P1;durP2;ratioP2;P2;SDS_P1;SDS_P2;PMS_P1;PMS_P2;Temp;Humidity;BMP_temperature;BMP_pressure;BME280_temperature;BME280_humidity;BME280_pressure;Samples;Min_cycle;Max_cycle;Signal;HPM_P1;HPM_P2
2022/10/04 00:01:52;;;;;;;5.63;2.43;;;13.40;99.90;;;;;;5047816;28;20196;-71
2022/10/04 00:04:24;;;;;;;5.27;2.20;;;13.40;99.90;;;;;;5047670;28;20215;-70
2022/10/04 00:06:56;;;;;;;10.03;2.40;;;13.40;99.90;;;;;;5047909;28;20203;-71
2022/10/04 00:09:26;;;;;;;8.00;2.40;;;13.40;99.90;;;;;;5034621;28;20311;-71
2022/10/04 00:11:55;;;;;;;4.90;2.47;;;13.40;99.90;;;;;;5027496;28;20208;-72
2022/10/04 00:14:25;;;;;;;12.90;2.90;;;13.50;99.90;;;;;;5030368;28;20208;-72
2022/10/04 00:16:52;;;;;;;4.80;2.40;;;13.50;99.90;;;;;;5051839;28;20662;-72
2022/10/04 00:19:45;;;;;;;8.77;2.93;;;13.50;99.90;;;;;;5047785;28;20594;-71
2022/10/04 00:22:18;;;;;;;7.33;2.40;;;13.50;99.90;;;;;;5047624;28;20257;-72
2022/10/04 00:25:21;;;;;;;5.67;2.27;;;13.50;99.90;;;;;;5029194;28;20247;-71
2022/10/04 00:28:27;;;;;;;10.03;2.50;;;13.50;99.90;;;;;;5027374;28;20238;-72
2022/10/04 00:31:23;;;;;;;5.70;2.67;;;13.50;99.90;;;;;;5027590;28;20303;-72
2022/10/04 00:33:53;;;;;;;8.97;2.63;;;13.50;99.90;;;;;;5027310;28;20200;-72
2022/10/04 00:36:44;;;;;;;9.97;2.97;;;13.50;99.90;;;;;;5027611;28;20201;-72
2022/10/04 00:39:51;;;;;;;4.30;2.20;;;13.50;99.90;;;;;;5035159;28;20234;-71
2022/10/04 00:42:53;;;;;;;7.97;2.33;;;13.40;99.90;;;;;;5046755;28;20204;-71
2022/10/04 00:45:29;;;;;;;8.33;2.57;;;13.50;99.90;;;;;;5047325;28;20208;-71
2022/10/04 00:48:04;;;;;;;9.80;2.50;;;13.40;99.90;;;;;;5047144;28;20200;-72
2022/10/04 00:50:35;;;;;;;5.77;2.40;;;13.40;99.90;;;;;;5027070;28;20232;-72
2022/10/04 00:53:14;;;;;;;9.30;2.57;;;13.40;99.90;;;;;;5045925;28;20243;-72
2022/10/04 00:55:46;;;;;;;11.00;2.60;;;13.40;99.90;;;;;;5046698;28;20215;-72
2022/10/04 00:58:18;;;;;;;7.23;2.47;;;13.30;99.90;;;;;;5046869;28;20567;-72
2022/10/04 01:00:48;;;;;;;6.20;2.30;;;13.30;99.90;;;;;;5047192;28;20201;-72
2022/10/04 01:03:19;;;;;;;8.30;3.10;;;13.30;99.90;;;;;;5031640;28;20221;-72
2022/10/04 01:05:49;;;;;;;6.73;2.43;;;13.30;99.90;;;;;;5040730;28;20247;-71
2022/10/04 01:08:23;;;;;;;6.87;2.50;;;13.30;99.90;;;;;;5046854;28;20193;-71
2022/10/04 01:10:54;;;;;;;7.63;2.43;;;13.30;99.90;;;;;;5046664;28;20228;-71
2022/10/04 01:13:24;;;;;;;11.30;3.00;;;13.30;99.90;;;;;;5042204;28;20211;-71
2022/10/04 01:15:56;;;;;;;9.97;2.53;;;13.30;99.90;;;;;;5046728;28;20569;-71
2022/10/04 01:18:30;;;;;;;8.93;2.53;;;13.30;99.90;;;;;;5045492;28;20279;-71
2022/10/04 01:20:59;;;;;;;6.97;2.63;;;13.30;99.90;;;;;;5046494;28;20674;-71
2022/10/04 01:23:42;;;;;;;6.50;2.40;;;13.30;99.90;;;;;;5046863;28;20211;-70
2022/10/04 01:26:35;;;;;;;7.37;2.50;;;13.30;99.90;;;;;;5046427;28;20204;-70
2022/10/04 01:29:06;;;;;;;6.13;2.23;;;13.30;99.90;;;;;;5026997;28;20196;-70
2022/10/04 01:31:35;;;;;;;10.17;2.90;;;13.20;99.90;;;;;;5032125;28;20246;-70
2022/10/04 01:34:03;;;;;;;9.03;2.53;;;13.20;99.90;;;;;;5034105;28;20690;-70
2022/10/04 01:36:31;;;;;;;7.77;2.60;;;13.20;99.90;;;;;;5050481;28;20246;-70
2022/10/04 01:39:00;;;;;;;11.67;2.67;;;13.10;99.90;;;;;;5049996;28;20212;-70
2022/10/04 01:41:32;;;;;;;15.90;3.00;;;13.10;99.90;;;;;;5050161;28;20223;-71
2022/10/04 01:44:01;;;;;;;8.47;2.30;;;13.10;99.90;;;;;;5049850;28;20588;-70
2022/10/04 01:46:33;;;;;;;6.97;2.67;;;13.10;99.90;;;;;;5050063;28;20196;-69
2022/10/04 01:49:03;;;;;;;7.10;2.33;;;13.00;99.90;;;;;;5049662;28;20203;-69
2022/10/04 01:51:33;;;;;;;7.03;2.33;;;13.00;99.90;;;;;;5050059;28;20243;-69
2022/10/04 01:54:06;;;;;;;6.83;2.37;;;13.00;99.90;;;;;;5050253;28;20231;-69
2022/10/04 01:56:41;;;;;;;9.23;2.83;;;13.00;99.90;;;;;;5050009;28;20197;-70
2022/10/04 01:59:17;;;;;;;10.07;2.80;;;13.00;99.90;;;;;;5050025;28;20357;-70
2022/10/04 02:01:47;;;;;;;8.57;2.43;;;13.00;99.90;;;;;;5049060;28;20257;-70
2022/10/04 02:04:17;;;;;;;11.27;2.20;;;13.00;99.90;;;;;;5049598;28;20212;-70
2022/10/04 02:06:46;;;;;;;8.60;2.70;;;13.00;99.90;;;;;;5033783;28;20220;-70
2022/10/04 02:09:18;;;;;;;5.97;2.10;;;13.00;99.90;;;;;;5034289;28;20656;-70
2022/10/04 02:11:49;;;;;;;7.87;2.60;;;12.90;99.90;;;;;;5029373;28;20225;-70
2022/10/04 02:14:19;;;;;;;11.50;2.70;;;12.90;99.90;;;;;;5030167;28;20263;-70
2022/10/04 02:16:51;;;;;;;8.77;2.50;;;12.90;99.90;;;;;;5029710;28;20204;-69
2022/10/04 02:19:18;;;;;;;9.63;3.20;;;12.80;99.90;;;;;;5029601;28;20201;-69
2022/10/04 02:21:46;;;;;;;6.50;2.40;;;12.70;99.90;;;;;;5037687;28;20220;-69
2022/10/04 02:24:15;;;;;;;4.80;2.23;;;12.70;99.90;;;;;;5049248;28;20236;-69
2022/10/04 02:26:49;;;;;;;10.00;2.67;;;12.60;99.90;;;;;;5044513;28;20232;-68
2022/10/04 02:29:16;;;;;;;7.50;2.77;;;12.60;99.90;;;;;;5027377;28;20193;-68
2022/10/04 02:34:28;;;;;;;7.20;2.63;;;12.60;99.90;;;;;;5047207;28;20263;-68
2022/10/04 02:36:55;;;;;;;7.00;2.37;;;12.60;99.90;;;;;;5047207;28;20204;-68
2022/10/04 02:39:26;;;;;;;7.70;2.33;;;12.50;99.90;;;;;;5047506;28;20211;-68
2022/10/04 02:41:57;;;;;;;8.57;3.07;;;12.50;99.90;;;;;;5047485;28;20207;-68
2022/10/04 02:44:28;;;;;;;12.43;4.00;;;12.50;99.90;;;;;;5047400;28;20664;-68
2022/10/04 02:47:03;;;;;;;9.57;3.47;;;12.50;99.90;;;;;;5046464;28;20204;-68
2022/10/04 02:49:33;;;;;;;6.40;2.20;;;12.50;99.90;;;;;;5046448;28;20658;-69
2022/10/04 02:52:05;;;;;;;8.50;2.70;;;12.50;99.90;;;;;;5046554;28;20266;-69
2022/10/04 02:54:39;;;;;;;9.63;2.87;;;12.40;99.90;;;;;;5036531;28;20247;-69
2022/10/04 02:57:15;;;;;;;9.67;3.10;;;12.40;99.90;;;;;;5032373;28;20203;-69
2022/10/04 02:59:42;;;;;;;7.33;2.53;;;12.40;99.90;;;;;;5036657;28;20220;-69
2022/10/04 03:02:22;;;;;;;12.00;3.27;;;12.40;99.90;;;;;;5028804;28;20212;-69
2022/10/04 03:04:50;;;;;;;5.97;1.97;;;12.30;99.90;;;;;;5045162;28;20208;-69
2022/10/04 03:07:18;;;;;;;11.03;2.70;;;12.30;99.90;;;;;;5048724;28;20911;-69
2022/10/04 03:09:46;;;;;;;8.97;3.30;;;12.30;99.90;;;;;;5048064;28;20701;-69
2022/10/04 03:12:14;;;;;;;7.50;2.40;;;12.30;99.90;;;;;;5048094;28;20726;-69
2022/10/04 03:14:41;;;;;;;7.63;2.47;;;12.20;99.90;;;;;;5048598;28;20274;-69
2022/10/04 03:17:09;;;;;;;8.03;2.50;;;12.20;99.90;;;;;;5048560;28;20211;-69
2022/10/04 03:19:36;;;;;;;4.67;2.23;;;12.20;99.90;;;;;;5048322;28;20208;-69
2022/10/04 03:22:07;;;;;;;7.93;2.07;;;12.20;99.90;;;;;;5047940;28;20593;-69
2022/10/04 03:24:37;;;;;;;8.97;2.33;;;12.10;99.90;;;;;;5047823;28;20733;-69
2022/10/04 03:27:09;;;;;;;10.30;2.50;;;12.10;99.90;;;;;;5048194;28;20199;-69
2022/10/04 03:29:41;;;;;;;10.00;2.60;;;12.10;99.90;;;;;;5047988;28;20203;-69
2022/10/04 03:32:12;;;;;;;8.53;2.47;;;12.10;99.90;;;;;;5048123;28;20311;-69
2022/10/04 03:34:42;;;;;;;12.10;2.70;;;12.10;99.90;;;;;;5041636;28;20201;-69
2022/10/04 03:37:14;;;;;;;8.97;2.50;;;12.10;99.90;;;;;;5028289;28;20205;-69
2022/10/04 03:39:43;;;;;;;8.90;2.50;;;12.10;99.90;;;;;;5028022;28;20205;-69
2022/10/04 03:42:15;;;;;;;7.63;2.47;;;12.10;99.90;;;;;;5033371;28;20204;-69
2022/10/04 03:44:42;;;;;;;9.33;2.40;;;12.20;99.90;;;;;;5047616;28;20512;-69
2022/10/04 03:47:11;;;;;;;7.00;2.30;;;12.20;99.90;;;;;;5047980;28;20208;-69
2022/10/04 03:49:38;;;;;;;5.93;2.30;;;12.20;99.90;;;;;;5047538;28;20204;-69
2022/10/04 03:52:07;;;;;;;7.80;2.40;;;12.30;99.90;;;;;;5047745;28;20242;-69
2022/10/04 03:54:35;;;;;;;7.30;2.50;;;12.30;99.90;;;;;;5047645;28;20224;-69
2022/10/04 03:57:02;;;;;;;7.03;2.50;;;12.30;99.90;;;;;;5046962;28;20216;-69
2022/10/04 03:59:31;;;;;;;9.93;2.67;;;12.40;99.90;;;;;;5047692;28;20208;-69
2022/10/04 04:02:07;;;;;;;6.50;2.33;;;12.40;99.90;;;;;;5047412;28;20239;-69
2022/10/04 04:04:43;;;;;;;6.90;2.13;;;12.50;99.90;;;;;;5047345;28;20196;-69
2022/10/04 04:07:14;;;;;;;5.17;1.77;;;12.50;99.90;;;;;;5047913;28;20192;-69
2022/10/04 04:09:45;;;;;;;9.57;2.50;;;12.50;99.90;;;;;;5047364;28;20207;-69
2022/10/04 04:12:17;;;;;;;10.03;3.00;;;12.50;99.90;;;;;;5047639;28;20905;-69
2022/10/04 04:14:49;;;;;;;9.77;3.00;;;12.50;99.90;;;;;;5047607;28;20242;-69
2022/10/04 04:17:32;;;;;;;9.20;2.60;;;12.50;99.90;;;;;;5047797;28;20196;-69
2022/10/04 04:20:02;;;;;;;6.57;2.50;;;12.50;99.90;;;;;;5047639;28;20199;-70
2022/10/04 04:22:31;;;;;;;8.43;3.13;;;12.50;99.90;;;;;;5047783;28;20244;-70
2022/10/04 04:25:00;;;;;;;7.17;3.10;;;12.50;99.90;;;;;;5046968;28;20825;-70
2022/10/04 04:27:28;;;;;;;13.30;2.30;;;12.50;99.90;;;;;;5047448;28;20555;-70
2022/10/04 04:30:01;;;;;;;9.87;2.37;;;12.50;99.90;;;;;;5047358;28;20214;-70
2022/10/04 04:32:33;;;;;;;6.30;2.63;;;12.50;99.90;;;;;;5047759;28;20231;-70
2022/10/04 04:35:05;;;;;;;7.03;2.13;;;12.50;99.90;;;;;;5038528;28;20201;-70
2022/10/04 04:37:32;;;;;;;6.43;2.43;;;12.40;99.90;;;;;;5027552;28;20202;-70
2022/10/04 04:40:18;;;;;;;4.67;2.17;;;12.50;99.90;;;;;;5045477;28;20204;-70
2022/10/04 04:42:45;;;;;;;5.70;2.20;;;12.50;99.90;;;;;;5047285;28;20236;-70
2022/10/04 04:45:18;;;;;;;8.53;2.70;;;12.50;99.90;;;;;;5046928;28;20211;-70
2022/10/04 04:47:46;;;;;;;8.17;2.60;;;12.50;99.90;;;;;;5047099;28;20197;-70
2022/10/04 04:50:15;;;;;;;3.53;1.97;;;12.50;99.90;;;;;;5046924;28;20720;-70
2022/10/04 04:52:45;;;;;;;7.03;2.23;;;12.60;99.90;;;;;;5047076;28;20232;-70
2022/10/04 04:55:19;;;;;;;6.47;2.43;;;12.60;99.90;;;;;;5032819;28;20648;-70
2022/10/04 04:57:47;;;;;;;7.90;2.57;;;12.60;99.90;;;;;;5051340;28;20226;-70
2022/10/04 05:00:20;;;;;;;4.53;1.97;;;12.60;99.90;;;;;;5046889;28;20204;-70
2022/10/04 05:02:55;;;;;;;11.20;3.03;;;12.60;99.90;;;;;;5047121;28;20211;-70
2022/10/04 05:05:25;;;;;;;8.47;2.30;;;12.60;99.90;;;;;;5046801;28;20254;-70
2022/10/04 05:08:10;;;;;;;7.17;2.30;;;12.60;99.90;;;;;;5046694;28;20639;-70
2022/10/04 05:10:40;;;;;;;9.13;2.60;;;12.60;99.90;;;;;;5050216;28;20199;-70
2022/10/04 05:13:10;;;;;;;6.87;2.53;;;12.50;99.90;;;;;;5050985;28;20196;-70
2022/10/04 05:15:40;;;;;;;7.87;2.40;;;12.50;99.90;;;;;;5050478;28;20667;-70
2022/10/04 05:18:24;;;;;;;12.13;2.23;;;12.50;99.90;;;;;;5050395;28;20219;-70
2022/10/04 05:20:53;;;;;;;5.80;2.33;;;12.50;99.90;;;;;;5050382;28;20200;-70
2022/10/04 05:23:20;;;;;;;7.03;2.73;;;12.50;99.90;;;;;;5050191;28;20215;-70
2022/10/04 05:25:48;;;;;;;4.87;2.57;;;12.50;99.90;;;;;;5049915;28;20666;-70
2022/10/04 05:28:17;;;;;;;4.87;2.30;;;12.50;99.90;;;;;;5050661;28;20200;-70
2022/10/04 05:30:54;;;;;;;5.80;2.20;;;12.50;99.90;;;;;;5050398;28;20208;-70
2022/10/04 05:33:27;;;;;;;7.93;2.67;;;12.50;99.90;;;;;;5050205;28;20200;-70
2022/10/04 05:36:31;;;;;;;7.20;2.67;;;12.50;99.90;;;;;;5049212;28;20689;-70
2022/10/04 05:39:05;;;;;;;11.20;3.10;;;12.50;99.90;;;;;;5050363;28;20291;-70
2022/10/04 05:41:38;;;;;;;8.53;2.70;;;12.50;99.90;;;;;;5050038;28;20250;-70
2022/10/04 05:44:20;;;;;;;6.77;2.60;;;12.50;99.90;;;;;;5050267;28;20208;-70
2022/10/04 05:46:48;;;;;;;8.47;2.63;;;12.50;99.90;;;;;;5049821;28;20216;-70
2022/10/04 05:49:18;;;;;;;6.03;2.83;;;12.60;99.90;;;;;;5039917;28;20201;-70
2022/10/04 05:51:50;;;;;;;5.47;2.20;;;12.60;99.90;;;;;;5038127;28;20235;-70
2022/10/04 05:54:21;;;;;;;6.03;2.27;;;12.70;99.90;;;;;;5049650;28;20236;-70
2022/10/04 05:57:20;;;;;;;8.20;2.53;;;12.70;99.90;;;;;;5049363;28;20652;-70
2022/10/04 06:00:10;;;;;;;9.53;2.70;;;12.80;99.90;;;;;;5037809;28;20218;-70
2022/10/04 06:02:59;;;;;;;9.90;2.57;;;12.80;99.90;;;;;;5049915;28;20192;-70
2022/10/04 06:05:28;;;;;;;6.80;2.67;;;12.80;99.90;;;;;;5050120;28;20207;-70
2022/10/04 06:08:01;;;;;;;6.67;2.83;;;12.80;99.90;;;;;;5049891;28;20262;-70
2022/10/04 06:10:51;;;;;;;10.47;2.93;;;12.70;99.90;;;;;;5049633;28;20607;-70
2022/10/04 06:13:38;;;;;;;9.77;2.43;;;12.70;99.90;;;;;;5050021;28;20211;-70
2022/10/04 06:16:15;;;;;;;6.47;2.50;;;12.70;99.90;;;;;;5049757;28;20199;-70
2022/10/04 06:19:00;;;;;;;7.93;2.90;;;12.70;99.90;;;;;;5049725;28;20317;-70
2022/10/04 06:21:28;;;;;;;5.83;2.40;;;12.70;99.90;;;;;;5049214;28;20212;-70
2022/10/04 06:24:01;;;;;;;8.27;3.50;;;12.80;99.90;;;;;;5049171;28;20232;-70
2022/10/04 06:26:35;;;;;;;7.97;2.80;;;12.80;99.90;;;;;;5049374;28;20200;-70
2022/10/04 06:29:05;;;;;;;6.73;2.47;;;12.80;99.90;;;;;;5049487;28;20192;-70
2022/10/04 06:32:10;;;;;;;12.93;7.33;;;12.70;99.90;;;;;;5049309;28;20232;-70
2022/10/04 06:34:54;;;;;;;9.53;4.10;;;12.70;99.90;;;;;;5048858;28;20207;-70
2022/10/04 06:37:45;;;;;;;7.17;2.70;;;12.70;99.90;;;;;;5049217;28;20207;-70
2022/10/04 06:40:40;;;;;;;7.47;2.90;;;12.70;99.90;;;;;;5048707;28;20192;-70
2022/10/04 06:43:19;;;;;;;8.07;3.17;;;12.70;99.90;;;;;;5048516;28;20729;-70
2022/10/04 06:46:05;;;;;;;5.37;2.60;;;12.60;99.90;;;;;;5048947;28;20206;-70
2022/10/04 06:48:58;;;;;;;8.53;3.07;;;12.60;99.90;;;;;;5049981;28;20200;-70
2022/10/04 06:51:39;;;;;;;8.40;3.17;;;12.70;99.90;;;;;;5049037;28;20224;-70
2022/10/04 06:54:20;;;;;;;6.63;2.77;;;12.70;99.90;;;;;;5048733;28;20238;-70
2022/10/04 06:57:01;;;;;;;5.80;2.87;;;12.70;99.90;;;;;;5048159;28;20211;-70
2022/10/04 06:59:43;;;;;;;7.17;2.83;;;12.70;99.90;;;;;;5048311;28;20202;-70
2022/10/04 07:02:16;;;;;;;10.83;3.00;;;12.70;99.90;;;;;;5048307;28;20203;-70
2022/10/04 07:04:50;;;;;;;12.00;3.00;;;12.70;99.90;;;;;;5048119;28;20452;-70
2022/10/04 07:07:34;;;;;;;8.80;3.33;;;12.80;99.90;;;;;;5048457;28;20196;-68
2022/10/04 07:10:08;;;;;;;12.40;2.80;;;12.80;99.90;;;;;;5048461;28;20200;-69
2022/10/04 07:12:40;;;;;;;11.70;3.77;;;12.80;99.90;;;;;;5048193;28;20227;-68
2022/10/04 07:15:15;;;;;;;4.60;2.53;;;12.90;99.90;;;;;;5048453;28;20196;-68
2022/10/04 07:17:45;;;;;;;5.90;3.13;;;13.00;99.90;;;;;;5048521;28;20215;-68
2022/10/04 07:20:20;;;;;;;4.47;2.87;;;13.10;99.90;;;;;;5048167;28;20216;-68
2022/10/04 07:22:55;;;;;;;6.13;3.03;;;13.10;99.90;;;;;;5048567;28;20204;-68
2022/10/04 07:25:26;;;;;;;8.23;3.23;;;13.10;99.90;;;;;;5047677;28;20591;-68
2022/10/04 07:30:45;;;;;;;8.57;3.63;;;13.00;99.90;;;;;;5028574;28;20271;-69
2022/10/04 07:33:18;;;;;;;9.40;3.80;;;13.00;99.90;;;;;;5027667;28;20220;-70
2022/10/04 07:35:48;;;;;;;6.77;3.53;;;13.00;99.90;;;;;;5042898;28;20223;-70
2022/10/04 07:38:22;;;;;;;8.57;3.97;;;13.00;99.90;;;;;;5048273;28;20204;-70
2022/10/04 07:41:07;;;;;;;8.37;3.83;;;13.00;99.90;;;;;;5047244;28;20210;-69
2022/10/04 07:43:40;;;;;;;5.83;4.33;;;13.00;99.90;;;;;;5047820;28;20234;-70
2022/10/04 07:46:17;;;;;;;5.03;3.90;;;13.10;99.90;;;;;;5052408;28;20208;-70
2022/10/04 07:48:47;;;;;;;13.60;5.60;;;13.00;99.90;;;;;;5047359;28;20192;-70
2022/10/04 07:51:21;;;;;;;6.50;3.70;;;13.10;99.90;;;;;;5051988;28;20207;-69
2022/10/04 07:53:53;;;;;;;8.20;4.60;;;13.10;99.90;;;;;;5067343;28;20227;-70
2022/10/04 07:56:26;;;;;;;7.07;3.93;;;13.10;99.90;;;;;;5067514;28;20571;-69
2022/10/04 07:59:03;;;;;;;8.27;4.50;;;13.10;99.90;;;;;;5067394;28;20257;-69
2022/10/04 08:01:37;;;;;;;11.93;4.60;;;13.10;99.90;;;;;;5067734;28;20203;-69
2022/10/04 08:04:31;;;;;;;5.67;4.33;;;13.10;99.90;;;;;;5067304;28;20638;-69
2022/10/04 08:07:01;;;;;;;4.67;4.23;;;13.20;99.90;;;;;;5067013;28;20211;-70
2022/10/04 08:09:48;;;;;;;7.83;4.90;;;13.20;99.90;;;;;;5067298;28;20207;-70
2022/10/04 08:12:21;;;;;;;6.90;4.57;;;13.30;99.90;;;;;;5067479;28;20225;-69
2022/10/04 08:14:56;;;;;;;6.87;3.90;;;13.40;99.90;;;;;;5067247;28;20195;-70
2022/10/04 08:17:44;;;;;;;6.07;4.33;;;13.50;99.90;;;;;;5067655;28;20207;-70
2022/10/04 08:20:35;;;;;;;4.87;3.40;;;13.50;99.90;;;;;;5067483;28;20196;-69
2022/10/04 08:23:15;;;;;;;6.70;4.63;;;13.50;99.90;;;;;;5048425;28;20212;-69
2022/10/04 08:25:56;;;;;;;3.80;2.97;;;13.50;99.90;;;;;;5046872;28;20200;-70
2022/10/04 08:31:33;;;;;;;5.07;3.30;;;13.60;99.90;;;;;;5047232;28;20310;-70
2022/10/04 08:34:12;;;;;;;7.57;3.37;;;13.70;99.90;;;;;;5046854;28;20733;-70
2022/10/04 08:36:52;;;;;;;7.73;3.30;;;13.80;99.90;;;;;;5027025;28;20698;-69
2022/10/04 08:39:38;;;;;;;4.53;2.60;;;13.90;99.90;;;;;;5027478;28;20197;-70
2022/10/04 08:42:44;;;;;;;7.50;3.27;;;13.90;99.90;;;;;;5041625;28;20204;-70
2022/10/04 08:45:31;;;;;;;4.20;3.03;;;13.90;99.90;;;;;;5025443;28;20211;-70
2022/10/04 08:48:29;;;;;;;6.50;3.20;;;13.90;99.90;;;;;;5051302;28;20192;-70
2022/10/04 08:51:17;;;;;;;4.40;2.77;;;13.90;99.90;;;;;;5051075;28;20250;-70
2022/10/04 08:54:19;;;;;;;6.60;2.80;;;13.90;99.90;;;;;;5050988;28;20422;-70
2022/10/04 08:56:58;;;;;;;8.60;3.30;;;13.90;99.90;;;;;;5050877;28;20208;-70
2022/10/04 08:59:50;;;;;;;8.90;3.00;;;13.90;99.90;;;;;;5051146;28;20196;-70
2022/10/04 09:02:42;;;;;;;5.40;2.50;;;13.90;99.90;;;;;;5037885;28;20231;-69
2022/10/04 09:05:25;;;;;;;7.60;2.50;;;14.00;99.90;;;;;;5050954;28;20196;-69
2022/10/04 09:08:25;;;;;;;5.40;2.63;;;14.00;99.90;;;;;;5051208;28;20200;-70
2022/10/04 09:11:20;;;;;;;4.70;2.90;;;14.10;99.90;;;;;;5050433;28;20207;-69
2022/10/04 09:14:22;;;;;;;3.90;2.50;;;14.20;99.90;;;;;;5050576;28;20714;-70
2022/10/04 09:16:54;;;;;;;4.83;2.33;;;14.20;99.90;;;;;;5050259;28;20665;-70
2022/10/04 09:19:26;;;;;;;5.17;2.27;;;14.20;99.90;;;;;;5050177;28;20670;-69
2022/10/04 09:22:16;;;;;;;4.87;2.57;;;14.20;99.90;;;;;;5050480;28;20200;-69
2022/10/04 09:25:08;;;;;;;3.77;2.30;;;14.20;99.90;;;;;;5050007;28;20240;-70
2022/10/04 09:28:04;;;;;;;3.43;2.50;;;14.20;99.90;;;;;;5050432;28;20196;-70
2022/10/04 09:30:46;;;;;;;10.37;3.03;;;14.20;99.90;;;;;;5050525;28;20193;-70
2022/10/04 09:33:37;;;;;;;21.47;4.43;;;14.30;99.90;;;;;;5050436;28;20220;-70
2022/10/04 09:36:26;;;;;;;5.60;2.60;;;14.40;99.90;;;;;;5050296;28;20297;-70
2022/10/04 09:39:20;;;;;;;5.73;2.10;;;14.60;99.90;;;;;;5054748;28;20796;-70
2022/10/04 09:42:17;;;;;;;6.83;3.00;;;15.00;99.90;;;;;;5050028;28;20204;-70
2022/10/04 09:45:23;;;;;;;7.67;2.83;;;15.10;99.90;;;;;;5024172;28;20208;-70
2022/10/04 09:48:08;;;;;;;4.93;2.50;;;15.30;99.90;;;;;;5050101;28;20198;-70
2022/10/04 09:51:07;;;;;;;8.80;3.20;;;15.40;99.90;;;;;;5030263;28;20204;-70
2022/10/04 09:53:45;;;;;;;5.70;2.70;;;15.40;99.90;;;;;;5030196;28;20236;-70
2022/10/04 09:56:47;;;;;;;4.63;2.53;;;15.40;99.90;;;;;;5029116;28;20197;-70
2022/10/04 09:59:28;;;;;;;3.73;2.80;;;15.50;99.90;;;;;;5004263;28;20235;-70
2022/10/04 10:02:27;;;;;;;3.73;2.90;;;15.60;99.90;;;;;;5030218;28;20196;-70
2022/10/04 10:05:13;;;;;;;7.67;2.53;;;15.70;99.90;;;;;;5029601;28;20662;-70
2022/10/04 10:07:48;;;;;;;5.53;2.90;;;15.80;99.90;;;;;;5029587;28;20197;-70
2022/10/04 10:13:42;;;;;;;6.17;2.63;;;15.90;99.90;;;;;;5029635;28;20260;-70
2022/10/04 10:16:32;;;;;;;5.07;3.03;;;15.90;99.90;;;;;;5037177;28;20197;-70
2022/10/04 10:19:16;;;;;;;7.23;3.03;;;16.10;99.90;;;;;;5048957;28;20204;-70
2022/10/04 10:21:57;;;;;;;8.87;2.90;;;16.10;99.90;;;;;;5049826;28;20211;-69
2022/10/04 10:24:57;;;;;;;4.87;2.60;;;16.00;99.90;;;;;;5049655;28;20427;-70
2022/10/04 10:27:49;;;;;;;5.90;2.70;;;16.00;99.90;;;;;;5025305;28;20204;-70
2022/10/04 10:30:22;;;;;;;5.93;2.83;;;15.90;99.90;;;;;;5049487;28;20192;-70
2022/10/04 10:33:24;;;;;;;9.57;2.67;;;15.90;99.90;;;;;;5049187;28;20224;-70
2022/10/04 10:36:30;;;;;;;6.63;2.73;;;15.90;99.90;;;;;;5048684;28;20689;-70
2022/10/04 10:39:30;;;;;;;4.80;2.37;;;15.90;99.90;;;;;;5049209;28;20199;-70
2022/10/04 10:42:32;;;;;;;8.77;2.50;;;15.90;99.90;;;;;;5043630;28;20245;-68
2022/10/04 10:45:15;;;;;;;7.13;2.10;;;15.90;99.90;;;;;;5023195;28;20214;-68
2022/10/04 10:47:51;;;;;;;8.47;2.20;;;16.00;99.90;;;;;;5048828;28;20659;-68
2022/10/04 10:51:01;;;;;;;4.70;2.30;;;16.10;99.90;;;;;;5048834;28;20192;-68
2022/10/04 10:54:07;;;;;;;6.60;2.10;;;16.10;99.90;;;;;;5029150;28;20899;-68
2022/10/04 10:56:43;;;;;;;5.43;2.23;;;16.10;99.90;;;;;;5028835;28;20201;-68
2022/10/04 10:59:40;;;;;;;8.17;2.43;;;16.10;99.90;;;;;;5028973;28;20205;-68
2022/10/04 11:02:35;;;;;;;5.30;2.30;;;16.10;99.90;;;;;;5028863;28;20197;-68
2022/10/04 11:05:30;;;;;;;3.27;2.33;;;16.10;99.90;;;;;;5028395;28;20208;-68
2022/10/04 11:08:11;;;;;;;7.90;2.40;;;16.00;99.90;;;;;;5027674;28;20200;-69
2022/10/04 11:11:13;;;;;;;7.00;2.93;;;15.90;99.90;;;;;;5028459;28;20193;-69
2022/10/04 11:14:11;;;;;;;6.37;1.93;;;16.00;99.90;;;;;;5035440;28;20280;-69
2022/10/04 11:16:59;;;;;;;8.63;2.00;;;16.10;99.90;;;;;;5048713;28;20202;-69
2022/10/04 11:19:46;;;;;;;4.57;2.10;;;16.10;99.90;;;;;;5048416;28;20202;-69
2022/10/04 11:22:51;;;;;;;7.70;2.00;;;16.10;99.90;;;;;;5048371;28;20215;-69
2022/10/04 11:25:40;;;;;;;3.00;1.70;;;16.20;99.90;;;;;;5047662;28;20242;-69
2022/10/04 11:28:15;;;;;;;4.30;1.70;;;16.30;99.90;;;;;;5048207;28;20654;-69
2022/10/04 11:31:22;;;;;;;3.83;1.93;;;16.50;99.90;;;;;;5048127;28;20214;-69
2022/10/04 11:34:12;;;;;;;2.77;1.97;;;16.70;99.90;;;;;;5043201;28;20322;-69
2022/10/04 11:36:53;;;;;;;5.23;1.90;;;16.80;99.90;;;;;;5048117;28;20196;-69
2022/10/04 11:39:49;;;;;;;7.00;1.77;;;16.90;99.90;;;;;;5048038;28;20205;-70
2022/10/04 11:42:30;;;;;;;6.20;1.73;;;16.70;99.90;;;;;;5034790;28;20208;-70
2022/10/04 11:45:32;;;;;;;4.67;1.87;;;16.60;99.90;;;;;;5047832;28;20196;-70
2022/10/04 11:48:10;;;;;;;6.03;1.67;;;16.60;99.90;;;;;;5047900;28;20582;-70
2022/10/04 11:51:02;;;;;;;4.97;1.70;;;16.70;99.90;;;;;;5047806;28;20200;-70
2022/10/04 11:54:02;;;;;;;3.90;1.80;;;16.80;99.90;;;;;;5027418;28;20638;-69
2022/10/04 11:56:55;;;;;;;6.37;2.00;;;17.00;99.90;;;;;;5002593;28;20685;-70
2022/10/04 11:59:37;;;;;;;2.13;1.50;;;17.30;99.90;;;;;;5027748;28;20197;-70
2022/10/04 12:02:36;;;;;;;4.87;1.97;;;17.40;99.90;;;;;;5027819;28;20197;-70
2022/10/04 12:05:31;;;;;;;4.33;1.90;;;17.40;99.90;;;;;;5027664;28;20193;-70
2022/10/04 12:08:14;;;;;;;2.23;1.40;;;17.40;99.90;;;;;;5046173;28;20203;-70
2022/10/04 12:10:42;;;;;;;5.27;2.00;;;17.40;99.90;;;;;;5047157;28;20206;-70
2022/10/04 12:13:52;;;;;;;5.43;1.90;;;17.30;99.90;;;;;;5047614;28;20247;-69
2022/10/04 12:16:35;;;;;;;5.77;1.80;;;17.40;99.90;;;;;;5032015;28;20204;-69
2022/10/04 12:19:45;;;;;;;5.90;1.70;;;17.50;99.90;;;;;;5047241;28;20287;-69
2022/10/04 12:22:41;;;;;;;3.87;1.77;;;17.70;99.90;;;;;;5039869;28;20295;-69
2022/10/04 12:25:32;;;;;;;4.50;2.17;;;18.00;99.90;;;;;;5046799;28;20251;-70
2022/10/04 12:28:13;;;;;;;5.23;2.10;;;17.90;99.90;;;;;;5047520;28;20201;-69
2022/10/04 12:30:57;;;;;;;3.90;1.80;;;17.80;99.90;;;;;;5047446;28;20195;-69
2022/10/04 12:33:31;;;;;;;5.73;1.60;;;17.80;99.90;;;;;;5047759;28;20234;-69
2022/10/04 12:36:09;;;;;;;5.43;1.83;;;17.80;99.90;;;;;;5047383;28;20647;-70
2022/10/04 12:39:08;;;;;;;5.67;2.23;;;17.90;99.90;;;;;;5047158;28;20659;-69
2022/10/04 12:41:46;;;;;;;5.20;2.10;;;17.80;99.90;;;;;;5012873;28;20243;-69
2022/10/04 12:44:30;;;;;;;6.97;2.30;;;18.00;99.90;;;;;;5046849;28;20722;-69
2022/10/04 12:47:10;;;;;;;5.87;1.90;;;18.00;99.90;;;;;;5046890;28;20674;-69
2022/10/04 12:49:45;;;;;;;5.40;1.97;;;18.00;99.90;;;;;;5046798;28;20200;-70
2022/10/04 12:52:17;;;;;;;5.17;1.60;;;17.90;99.90;;;;;;5058991;28;20207;-69
2022/10/04 12:54:47;;;;;;;2.80;1.60;;;17.70;99.90;;;;;;5062933;28;20239;-69
2022/10/04 12:57:28;;;;;;;4.40;1.83;;;17.60;99.90;;;;;;5047058;28;20204;-69
2022/10/04 13:00:03;;;;;;;7.20;1.87;;;17.60;99.90;;;;;;5040044;28;20212;-69
2022/10/04 13:02:57;;;;;;;5.33;1.70;;;17.50;99.90;;;;;;5025494;28;20262;-69
2022/10/04 13:05:30;;;;;;;3.63;1.53;;;17.60;99.90;;;;;;5036332;28;20212;-69
2022/10/04 13:08:24;;;;;;;4.63;2.10;;;17.60;99.90;;;;;;5044871;28;20650;-69
2022/10/04 13:11:04;;;;;;;7.00;1.90;;;17.60;99.90;;;;;;5037156;28;20204;-69
2022/10/04 13:13:58;;;;;;;5.77;2.03;;;17.70;99.90;;;;;;5044518;28;20224;-69
2022/10/04 13:16:41;;;;;;;4.40;1.57;;;17.80;99.90;;;;;;5044721;28;20208;-69
2022/10/04 13:19:19;;;;;;;5.70;1.87;;;17.90;99.90;;;;;;5044315;28;20196;-69
2022/10/04 13:22:19;;;;;;;2.73;1.50;;;18.00;99.90;;;;;;5045130;28;20710;-69
2022/10/04 13:25:00;;;;;;;5.37;1.80;;;18.00;99.90;;;;;;5041056;28;20240;-69
2022/10/04 13:27:34;;;;;;;5.07;1.60;;;17.90;99.90;;;;;;5039110;28;20231;-69
2022/10/04 13:30:06;;;;;;;6.03;2.00;;;18.00;99.90;;;;;;5025917;28;20200;-69
2022/10/04 13:32:41;;;;;;;4.83;1.60;;;18.40;99.90;;;;;;5028513;28;20205;-69
2022/10/04 13:35:16;;;;;;;3.57;1.70;;;18.80;99.90;;;;;;5045466;28;20224;-69
2022/10/04 13:37:53;;;;;;;3.97;1.57;;;19.10;99.90;;;;;;5048268;28;20748;-69
2022/10/04 13:40:36;;;;;;;5.93;2.30;;;19.30;99.90;;;;;;5047942;28;20200;-69
2022/10/04 13:43:22;;;;;;;5.97;2.03;;;19.40;99.90;;;;;;5047880;28;20683;-69
2022/10/04 13:46:02;;;;;;;4.10;1.27;;;19.20;99.90;;;;;;5046311;28;20193;-70
2022/10/04 13:48:48;;;;;;;3.77;1.57;;;19.10;99.90;;;;;;5047246;28;20220;-70
2022/10/04 13:51:43;;;;;;;6.70;1.90;;;19.20;99.90;;;;;;5045131;28;20223;-70
2022/10/04 13:57:20;;;;;;;2.67;1.77;;;19.50;99.90;;;;;;5047832;28;20223;-70
2022/10/04 13:59:53;;;;;;;2.33;1.30;;;19.70;99.90;;;;;;5048269;28;20204;-69
2022/10/04 14:02:46;;;;;;;4.43;1.57;;;19.60;99.90;;;;;;5048302;28;20253;-70
2022/10/04 14:05:45;;;;;;;6.93;1.77;;;19.30;99.90;;;;;;5046955;28;20769;-70